createdAt,value
2019-04-21T00:02:20.019Z,71.20
2019-04-21T00:04:50.766Z,71.00
2019-04-21T00:07:25.091Z,71.50
2019-04-21T00:10:02.595Z,71.40
2019-04-21T00:12:22.017Z,71.70
2019-04-21T00:14:46.058Z,72.70
2019-04-21T00:17:07.924Z,73.30
2019-04-21T00:19:38.568Z,73.30
2019-04-21T00:22:16.183Z,73.10
2019-04-21T00:24:44.722Z,73.20
2019-04-21T00:27:18.730Z,72.60
2019-04-21T00:29:50.373Z,72.60
2019-04-21T00:32:10.447Z,73.50
2019-04-21T00:34:25.735Z,76.80
2019-04-21T00:37:03.145Z,77.80
2019-04-21T00:39:49.090Z,79.60
2019-04-21T00:42:05.170Z,80.20
2019-04-21T00:44:26.963Z,80.10
2019-04-21T00:47:00.614Z,81.30
2019-04-21T00:49:27.073Z,80.80
2019-04-21T00:52:24.656Z,80.10
2019-04-21T00:54:51.935Z,78.70
2019-04-21T00:57:14.033Z,78.70
2019-04-21T00:59:41.293Z,79.70
2019-04-21T01:02:00.076Z,80.40
2019-04-21T01:04:37.270Z,79.60
2019-04-21T01:07:01.624Z,79.00
2019-04-21T01:09:29.136Z,78.90
2019-04-21T01:12:05.140Z,78.80
2019-04-21T01:14:35.870Z,78.70
2019-04-21T01:17:02.308Z,79.30
2019-04-21T01:19:23.853Z,79.30
2019-04-21T01:21:31.502Z,79.60
2019-04-21T01:24:05.448Z,80.30
2019-04-21T01:26:40.839Z,81.30
2019-04-21T01:29:14.464Z,82.60
2019-04-21T01:31:36.286Z,82.60
2019-04-21T01:34:15.323Z,81.90
2019-04-21T01:36:39.036Z,81.50
2019-04-21T01:39:15.020Z,81.20
2019-04-21T01:41:42.988Z,80.70
2019-04-21T01:44:02.538Z,81.10
2019-04-21T01:46:29.392Z,80.80
2019-04-21T01:48:58.089Z,80.60
2019-04-21T01:51:26.038Z,82.70
2019-04-21T01:54:16.016Z,83.20
2019-04-21T01:56:44.509Z,83.90
2019-04-21T01:59:01.320Z,83.60
2019-04-21T02:01:39.109Z,83.70
2019-04-21T02:04:07.215Z,85.20
2019-04-21T02:06:39.201Z,84.30
2019-04-21T02:09:05.121Z,83.50
2019-04-21T02:11:40.922Z,83.00
2019-04-21T02:14:09.964Z,83.80
2019-04-21T02:16:34.285Z,84.80
2019-04-21T02:18:54.482Z,84.60
2019-04-21T02:21:21.728Z,85.90
2019-04-21T02:24:00.537Z,86.40
2019-04-21T02:26:28.640Z,87.00
2019-04-21T02:28:55.837Z,87.70
2019-04-21T02:39:16.400Z,88.30
2019-04-21T02:41:28.363Z,88.60
2019-04-21T02:46:27.093Z,89.20
2019-04-21T02:48:55.832Z,89.80
2019-04-21T02:51:19.394Z,89.80
2019-04-21T02:54:01.684Z,89.80
2019-04-21T02:56:18.393Z,89.50
2019-04-21T03:01:25.997Z,88.60
2019-04-21T03:06:39.382Z,88.90
2019-04-21T03:09:10.383Z,88.60
2019-04-21T03:11:24.299Z,87.90
2019-04-21T03:14:13.639Z,88.00
2019-04-21T03:16:26.321Z,87.40
2019-04-21T03:18:56.683Z,87.40
2019-04-21T03:21:32.276Z,87.50
2019-04-21T03:23:58.102Z,87.40
2019-04-21T03:26:28.345Z,87.10
2019-04-21T03:31:39.277Z,88.10
2019-04-21T03:41:15.890Z,88.20
2019-04-21T03:43:44.563Z,89.70
2019-04-21T03:46:11.794Z,90.20
2019-04-21T03:49:27.961Z,90.00
2019-04-21T03:51:07.369Z,90.30
2019-04-21T03:53:32.044Z,90.20
2019-04-21T03:58:47.464Z,90.20
2019-04-21T04:06:19.585Z,91.40
2019-04-21T04:11:31.659Z,90.70
2019-04-21T04:16:20.168Z,91.10
2019-04-21T04:18:55.753Z,90.10
2019-04-21T04:21:24.329Z,90.20
2019-04-21T04:23:51.317Z,91.10
2019-04-21T04:26:13.070Z,91.30
2019-04-21T04:31:15.351Z,90.90
2019-04-21T04:33:48.812Z,90.80
2019-04-21T04:36:39.123Z,90.50
2019-04-21T04:38:52.010Z,90.60
2019-04-21T04:43:54.779Z,88.50
2019-04-21T04:46:18.454Z,86.90
2019-04-21T04:48:47.010Z,85.30
2019-04-21T04:51:17.030Z,84.50
2019-04-21T04:56:10.891Z,83.80
2019-04-21T04:59:18.656Z,83.80
2019-04-21T05:01:14.161Z,83.60
2019-04-21T05:03:47.328Z,83.70
2019-04-21T05:06:37.130Z,83.60
2019-04-21T05:11:37.739Z,83.10
2019-04-21T05:16:24.500Z,83.10
2019-04-21T05:18:52.811Z,83.10
2019-04-21T05:21:24.763Z,83.00
2019-04-21T05:23:31.646Z,82.30
2019-04-21T05:25:54.273Z,82.00
2019-04-21T05:28:21.914Z,81.50
2019-04-21T05:31:20.419Z,81.00
2019-04-21T05:33:47.563Z,80.90
2019-04-21T05:36:14.246Z,80.50
2019-04-21T05:38:43.585Z,80.30
2019-04-21T05:41:06.817Z,78.30
2019-04-21T05:43:46.305Z,77.30
2019-04-21T05:46:13.357Z,76.70
2019-04-21T05:48:48.399Z,76.50
2019-04-21T05:51:10.198Z,74.90
2019-04-21T05:53:42.700Z,73.50
2019-04-21T05:56:17.312Z,72.10
2019-04-21T05:58:37.792Z,70.70
2019-04-21T06:03:47.552Z,68.30
2019-04-21T06:06:13.750Z,67.90
2019-04-21T06:08:38.944Z,67.10
2019-04-21T06:11:10.453Z,64.90
2019-04-21T06:16:03.532Z,62.00
2019-04-21T06:18:35.339Z,60.10
2019-04-21T06:20:59.754Z,58.30
2019-04-21T06:23:24.191Z,59.30
2019-04-21T06:28:30.588Z,60.30
2019-04-21T06:31:01.552Z,60.20
2019-04-21T06:33:23.488Z,58.50
2019-04-21T06:36:19.819Z,57.80
2019-04-21T06:38:54.303Z,55.80
2019-04-21T06:41:13.483Z,55.00
2019-04-21T06:43:48.570Z,54.50
2019-04-21T06:46:12.275Z,55.30
2019-04-21T06:48:44.052Z,54.10
2019-04-21T06:51:08.996Z,53.40
2019-04-21T06:53:42.573Z,53.80
2019-04-21T06:56:04.621Z,54.30
2019-04-21T06:58:26.199Z,53.60
2019-04-21T07:00:56.374Z,52.80
2019-04-21T07:03:42.158Z,52.20
2019-04-21T07:05:56.784Z,52.30
2019-04-21T07:10:54.099Z,51.70
2019-04-21T07:13:15.380Z,51.80
2019-04-21T07:16:00.481Z,51.00
2019-04-21T07:18:12.535Z,50.90
2019-04-21T07:20:42.305Z,51.20
2019-04-21T07:23:17.484Z,51.60
2019-04-21T07:25:38.497Z,51.70
2019-04-21T07:28:05.241Z,51.10
2019-04-21T07:30:39.211Z,51.80
2019-04-21T07:33:19.146Z,52.10
2019-04-21T07:35:31.957Z,52.80
2019-04-21T07:37:57.864Z,53.60
2019-04-21T07:40:24.286Z,53.90
2019-04-21T07:42:51.347Z,54.60
2019-04-21T07:45:22.740Z,55.10
2019-04-21T07:48:06.445Z,55.70
2019-04-21T07:50:46.917Z,55.80
2019-04-21T07:53:21.237Z,56.30
2019-04-21T07:58:13.259Z,57.00
2019-04-21T08:00:56.329Z,57.10
2019-04-21T08:03:09.606Z,57.40
2019-04-21T08:05:40.444Z,57.40
2019-04-21T08:08:01.621Z,57.70
2019-04-21T08:10:33.533Z,57.90
2019-04-21T08:13:04.298Z,57.50
2019-04-21T08:15:44.631Z,58.20
2019-04-21T08:18:04.277Z,57.80
2019-04-21T08:20:24.734Z,57.90
2019-04-21T08:23:12.994Z,58.10
2019-04-21T08:25:32.056Z,58.20
2019-04-21T08:27:54.492Z,57.90
2019-04-21T08:30:26.303Z,57.90
2019-04-21T08:37:43.141Z,57.90
2019-04-21T08:40:15.757Z,57.90
2019-04-21T08:42:44.811Z,57.60
2019-04-21T08:45:15.094Z,57.20
2019-04-21T08:47:39.647Z,57.50
2019-04-21T08:50:09.630Z,58.00
2019-04-21T08:52:44.337Z,57.60
2019-04-21T08:55:12.674Z,57.70
2019-04-21T08:58:08.162Z,57.60
2019-04-21T09:00:38.859Z,57.20
2019-04-21T09:03:11.792Z,56.40
2019-04-21T09:05:31.304Z,56.20
2019-04-21T09:08:05.190Z,55.70
2019-04-21T09:10:31.152Z,55.40
2019-04-21T09:13:01.349Z,55.80
2019-04-21T09:15:25.250Z,55.30
2019-04-21T09:17:48.852Z,54.20
2019-04-21T09:20:31.078Z,54.00
2019-04-21T09:22:55.669Z,54.80
2019-04-21T09:25:27.013Z,54.60
2019-04-21T09:27:46.740Z,54.60
2019-04-21T09:30:06.528Z,54.60
2019-04-21T09:32:34.541Z,53.00
2019-04-21T09:35:03.408Z,53.90
2019-04-21T09:37:40.010Z,53.80
2019-04-21T09:39:57.850Z,53.40
2019-04-21T09:42:33.207Z,53.50
2019-04-21T09:44:58.054Z,53.40
2019-04-21T09:47:24.548Z,53.50
2019-04-21T09:49:49.416Z,53.20
2019-04-21T09:52:20.883Z,52.40
2019-04-21T09:54:54.743Z,51.90
2019-04-21T09:57:25.731Z,51.90
2019-04-21T09:59:47.612Z,50.40
2019-04-21T10:02:17.477Z,49.70
2019-04-21T10:04:37.979Z,49.20
2019-04-21T10:07:04.638Z,48.90
2019-04-21T10:09:31.114Z,49.20
2019-04-21T10:11:57.612Z,48.30
2019-04-21T10:14:24.373Z,47.90
2019-04-21T10:16:53.946Z,47.60
2019-04-21T10:19:21.069Z,47.80
2019-04-21T10:21:47.861Z,47.90
2019-04-21T10:24:14.400Z,47.80
2019-04-21T10:26:40.973Z,47.20
2019-04-21T10:29:14.747Z,47.90
2019-04-21T10:31:36.799Z,48.50
2019-04-21T10:34:03.319Z,47.70
2019-04-21T10:36:30.952Z,47.80
2019-04-21T10:38:58.727Z,47.70
2019-04-21T10:41:25.548Z,46.50
2019-04-21T10:43:52.120Z,47.50
2019-04-21T10:46:19.646Z,48.00
2019-04-21T10:48:46.352Z,48.30
2019-04-21T10:51:13.108Z,48.60
2019-04-21T10:53:42.734Z,49.30
2019-04-21T10:56:17.990Z,49.50
2019-04-21T10:58:40.377Z,49.70
2019-04-21T11:01:12.745Z,50.00
2019-04-21T11:03:54.984Z,50.70
2019-04-21T11:06:22.297Z,50.50
2019-04-21T11:08:52.363Z,50.60
2019-04-21T11:11:17.588Z,50.60
2019-04-21T11:13:44.335Z,50.00
2019-04-21T11:16:11.122Z,50.00
2019-04-21T11:18:37.838Z,49.60
2019-04-21T11:21:04.933Z,49.30
2019-04-21T11:23:31.420Z,49.30
2019-04-21T11:25:58.128Z,49.30
2019-04-21T11:28:24.847Z,48.50
2019-04-21T11:30:51.062Z,48.30
2019-04-21T11:33:17.538Z,47.70
2019-04-21T11:35:45.472Z,48.50
2019-04-21T11:38:25.643Z,48.90
2019-04-21T11:40:51.775Z,49.10
2019-04-21T11:43:18.272Z,49.00
2019-04-21T11:45:44.689Z,49.10
2019-04-21T11:48:16.650Z,48.80
2019-04-21T11:50:43.361Z,49.30
2019-04-21T11:53:10.646Z,49.00
2019-04-21T11:55:41.110Z,49.80
2019-04-21T11:58:05.667Z,49.60
2019-04-21T12:00:32.161Z,49.90
2019-04-21T12:02:59.562Z,50.10
2019-04-21T12:05:25.759Z,49.30
2019-04-21T12:07:53.366Z,50.00
2019-04-21T12:10:19.673Z,50.90
2019-04-21T12:12:47.457Z,51.30
2019-04-21T12:15:14.368Z,51.70
2019-04-21T12:17:41.784Z,52.90
2019-04-21T12:20:08.632Z,53.10
2019-04-21T12:22:35.718Z,53.70
2019-04-21T12:25:07.174Z,54.40
2019-04-21T12:27:33.987Z,54.90
2019-04-21T12:30:01.913Z,55.50
2019-04-21T12:32:46.637Z,56.20
2019-04-21T12:35:15.764Z,56.20
2019-04-21T12:37:42.769Z,56.80
2019-04-21T12:40:10.530Z,56.20
2019-04-21T12:42:38.901Z,55.90
2019-04-21T12:45:07.482Z,55.30
2019-04-21T12:47:34.171Z,55.00
2019-04-21T12:50:00.599Z,55.40
2019-04-21T12:52:27.340Z,56.00
2019-04-21T12:54:53.933Z,56.60
2019-04-21T12:57:21.417Z,56.80
2019-04-21T12:59:48.723Z,56.90
2019-04-21T13:02:15.973Z,57.00
2019-04-21T13:04:42.712Z,57.00
2019-04-21T13:07:10.319Z,56.30
2019-04-21T13:09:37.541Z,56.20
2019-04-21T13:12:04.875Z,56.40
2019-04-21T13:14:31.606Z,56.70
2019-04-21T13:16:59.353Z,56.20
2019-04-21T13:19:25.766Z,56.10
2019-04-21T13:21:52.251Z,56.30
2019-04-21T13:24:19.871Z,55.80
2019-04-21T13:26:52.758Z,56.10
2019-04-21T13:29:14.639Z,56.50
2019-04-21T13:31:42.448Z,56.00
2019-04-21T13:34:10.344Z,56.20
2019-04-21T13:36:36.849Z,56.50
2019-04-21T13:39:39.078Z,56.50
2019-04-21T13:41:48.333Z,56.70
2019-04-21T13:44:08.947Z,56.90
2019-04-21T13:46:36.513Z,56.80
2019-04-21T13:49:03.238Z,57.10
2019-04-21T13:51:29.630Z,57.10
2019-04-21T13:53:55.957Z,57.00
2019-04-21T13:56:22.686Z,57.30
2019-04-21T13:58:50.425Z,57.30
2019-04-21T14:01:18.044Z,57.80
2019-04-21T14:03:44.373Z,58.40
2019-04-21T14:06:12.050Z,57.60
2019-04-21T14:08:41.597Z,57.90
2019-04-21T14:11:07.211Z,57.50
2019-04-21T14:13:34.250Z,57.70
2019-04-21T14:16:02.040Z,57.40
2019-04-21T14:18:28.857Z,57.00
2019-04-21T14:20:55.424Z,56.70
2019-04-21T14:23:32.009Z,56.60
2019-04-21T14:25:50.245Z,56.60
2019-04-21T14:28:17.729Z,56.80
2019-04-21T14:30:44.267Z,56.60
2019-04-21T14:33:12.002Z,56.40
2019-04-21T14:35:38.910Z,56.50
2019-04-21T14:38:06.843Z,56.40
2019-04-21T14:40:35.071Z,57.10
2019-04-21T14:43:02.665Z,57.00
2019-04-21T14:45:48.352Z,56.60
2019-04-21T14:48:29.567Z,56.60
2019-04-21T14:51:07.012Z,57.00
2019-04-21T14:53:38.132Z,56.00
2019-04-21T14:56:04.618Z,55.90
2019-04-21T14:58:30.960Z,55.70
2019-04-21T15:01:00.135Z,55.00
2019-04-21T15:03:27.810Z,55.60
2019-04-21T15:05:55.694Z,55.50
2019-04-21T15:08:22.147Z,55.20
2019-04-21T15:10:49.343Z,54.90
2019-04-21T15:13:15.633Z,55.30
2019-04-21T15:15:41.885Z,55.60
2019-04-21T15:18:08.500Z,55.20
2019-04-21T15:20:36.198Z,55.90
2019-04-21T15:23:03.933Z,55.90
2019-04-21T15:25:32.035Z,55.10
2019-04-21T15:27:59.062Z,55.10
2019-04-21T15:30:26.777Z,55.10
2019-04-21T15:32:54.604Z,55.00
2019-04-21T15:35:21.363Z,55.30
2019-04-21T15:37:47.829Z,55.00
2019-04-21T15:40:22.546Z,54.20
2019-04-21T15:42:44.305Z,53.50
2019-04-21T15:45:10.816Z,52.70
2019-04-21T15:47:37.989Z,52.70
2019-04-21T15:50:11.943Z,52.40
2019-04-21T15:52:35.744Z,52.50
2019-04-21T15:55:05.301Z,51.90
2019-04-21T15:57:37.656Z,51.50
2019-04-21T16:00:10.822Z,51.00
2019-04-21T16:02:40.384Z,51.40
2019-04-21T16:05:10.540Z,59.90
2019-04-21T16:07:38.081Z,50.90
2019-04-21T16:10:08.698Z,50.50
2019-04-21T16:12:34.154Z,50.70
2019-04-21T16:15:00.768Z,50.70
2019-04-21T16:17:27.621Z,50.80
2019-04-21T16:19:54.269Z,50.90
2019-04-21T16:22:20.941Z,50.90
2019-04-21T16:24:47.754Z,50.90
2019-04-21T16:27:15.258Z,51.00
2019-04-21T16:29:41.808Z,50.90
2019-04-21T16:32:09.107Z,50.50
2019-04-21T16:34:43.190Z,50.40
2019-04-21T16:37:03.851Z,50.40
2019-04-21T16:39:31.455Z,50.70
2019-04-21T16:41:58.324Z,50.60
2019-04-21T16:44:25.275Z,50.80
2019-04-21T16:46:51.835Z,50.80
2019-04-21T16:49:18.161Z,50.40
2019-04-21T16:51:46.515Z,51.10
2019-04-21T16:54:15.725Z,50.90
2019-04-21T16:56:44.077Z,51.20
2019-04-21T16:59:12.604Z,51.20
2019-04-21T17:01:38.977Z,50.50
2019-04-21T17:04:06.662Z,51.10
2019-04-21T17:06:33.303Z,51.10
2019-04-21T17:09:00.908Z,51.50
2019-04-21T17:11:33.098Z,51.10
2019-04-21T17:13:56.683Z,51.10
2019-04-21T17:19:01.870Z,51.30
2019-04-21T17:21:21.422Z,51.60
2019-04-21T17:23:48.226Z,51.30
2019-04-21T17:26:15.221Z,51.40
2019-04-21T17:28:42.638Z,51.40
2019-04-21T17:31:10.727Z,52.10
2019-04-21T17:33:37.177Z,52.60
2019-04-21T17:36:04.978Z,52.10
2019-04-21T17:38:32.095Z,52.30
2019-04-21T17:41:10.357Z,52.10
2019-04-21T17:43:27.606Z,53.00
2019-04-21T17:45:55.185Z,52.70
2019-04-21T17:48:21.888Z,53.00
2019-04-21T17:50:51.596Z,52.70
2019-04-21T17:53:30.294Z,52.50
2019-04-21T17:56:15.265Z,52.30
2019-04-21T17:58:37.258Z,51.70
2019-04-21T18:01:12.847Z,52.00
2019-04-21T18:03:46.010Z,52.40
2019-04-21T18:05:59.545Z,52.10
2019-04-21T18:08:38.950Z,51.90
2019-04-21T18:10:54.354Z,52.50
2019-04-21T18:13:14.506Z,51.80
2019-04-21T18:15:53.466Z,52.20
2019-04-21T18:18:08.437Z,52.30
2019-04-21T18:20:39.953Z,52.30
2019-04-21T18:23:34.962Z,53.10
2019-04-21T18:25:57.853Z,53.10
2019-04-21T18:28:16.938Z,53.80
2019-04-21T18:30:48.725Z,53.10
2019-04-21T18:33:22.189Z,53.10
2019-04-21T18:35:55.088Z,53.10
2019-04-21T18:38:27.044Z,54.20
2019-04-21T18:40:53.948Z,54.20
2019-04-21T18:46:15.659Z,54.60
2019-04-21T18:48:32.828Z,54.70
2019-04-21T18:50:58.991Z,55.00
2019-04-21T18:53:46.593Z,55.00
2019-04-21T18:56:03.901Z,55.00
2019-04-21T18:58:26.754Z,55.30
2019-04-21T19:01:03.243Z,55.60
2019-04-21T19:03:28.150Z,55.80
2019-04-21T19:05:55.293Z,56.10
2019-04-21T19:08:39.206Z,56.20
2019-04-21T19:11:10.303Z,56.20
2019-04-21T19:13:47.779Z,56.30
2019-04-21T19:16:22.834Z,56.40
2019-04-21T19:18:41.479Z,56.60
2019-04-21T19:21:04.192Z,57.30
2019-04-21T19:23:43.160Z,57.40
2019-04-21T19:26:06.107Z,57.10
2019-04-21T19:28:24.672Z,57.70
2019-04-21T19:31:00.937Z,58.00
2019-04-21T19:33:21.582Z,58.10
2019-04-21T19:35:31.875Z,58.60
2019-04-21T19:38:04.710Z,58.70
2019-04-21T19:40:44.815Z,59.10
2019-04-21T19:43:03.388Z,71.10
2019-04-21T19:45:38.070Z,63.90
2019-04-21T19:48:09.029Z,61.30
2019-04-21T19:50:43.845Z,58.50
2019-04-21T19:52:57.751Z,56.00
2019-04-21T19:55:16.150Z,55.30
2019-04-21T19:57:43.163Z,53.40
2019-04-21T20:00:11.520Z,52.80
2019-04-21T20:02:38.506Z,49.60
2019-04-21T20:05:09.545Z,51.40
2019-04-21T20:07:49.487Z,54.00
2019-04-21T20:10:26.857Z,56.20
2019-04-21T20:12:52.116Z,58.20
2019-04-21T20:15:33.023Z,59.60
2019-04-21T20:17:48.316Z,60.30
2019-04-21T20:20:00.747Z,60.60
2019-04-21T20:22:32.666Z,61.40
2019-04-21T20:25:02.317Z,61.80
2019-04-21T20:27:37.490Z,61.90
2019-04-21T20:30:06.808Z,62.20
2019-04-21T20:32:38.232Z,62.50
2019-04-21T20:35:08.615Z,62.90
2019-04-21T20:37:34.540Z,63.20
2019-04-21T20:39:50.248Z,62.90
2019-04-21T20:42:23.718Z,63.20
2019-04-21T20:45:16.579Z,63.60
2019-04-21T20:47:20.019Z,64.20
2019-04-21T20:49:45.022Z,64.10
2019-04-21T20:52:29.415Z,64.50
2019-04-21T20:54:48.881Z,64.80
2019-04-21T20:57:18.998Z,65.10
2019-04-21T20:59:44.172Z,65.10
2019-04-21T21:02:19.438Z,65.20
2019-04-21T21:04:37.042Z,64.80
2019-04-21T21:07:16.659Z,65.00
2019-04-21T21:09:41.444Z,65.00
2019-04-21T21:12:24.675Z,64.90
2019-04-21T21:14:40.633Z,65.10
2019-04-21T21:17:06.534Z,65.00
2019-04-21T21:19:37.790Z,65.10
2019-04-21T21:21:57.608Z,65.30
2019-04-21T21:24:39.091Z,65.30
2019-04-21T21:26:58.069Z,64.70
2019-04-21T21:29:26.398Z,65.10
2019-04-21T21:31:55.644Z,65.80
2019-04-21T21:34:30.803Z,65.80
2019-04-21T21:36:47.709Z,65.10
2019-04-21T21:39:15.831Z,64.90
2019-04-21T21:41:34.474Z,65.60
2019-04-21T21:44:05.807Z,65.10
2019-04-21T21:46:40.228Z,65.20
2019-04-21T21:49:05.125Z,65.10
2019-04-21T21:51:39.760Z,65.20
2019-04-21T21:53:52.620Z,65.40
2019-04-21T21:56:20.491Z,65.40
2019-04-21T21:58:48.408Z,65.30
2019-04-21T22:01:20.629Z,65.30
2019-04-21T22:03:46.690Z,65.60
2019-04-21T22:06:17.548Z,65.80
2019-04-21T22:08:40.571Z,65.70
2019-04-21T22:11:08.898Z,65.80
2019-04-21T22:13:43.612Z,65.60
2019-04-21T22:16:09.960Z,65.60
2019-04-21T22:18:56.783Z,65.60
2019-04-21T22:21:13.852Z,66.00
2019-04-21T22:23:39.967Z,65.60
2019-04-21T22:25:57.610Z,65.50
2019-04-21T22:28:25.302Z,65.30
2019-04-21T22:30:53.363Z,65.30
2019-04-21T22:33:23.099Z,65.30
2019-04-21T22:35:54.289Z,65.30
2019-04-21T22:38:37.576Z,65.60
2019-04-21T22:40:58.051Z,65.50
2019-04-21T22:43:21.753Z,65.10
2019-04-21T22:45:41.356Z,65.30
2019-04-21T22:48:14.270Z,65.10
2019-04-21T22:50:38.288Z,65.60
2019-04-21T22:53:08.048Z,65.50
2019-04-21T22:55:35.126Z,65.60
2019-04-21T22:58:03.156Z,65.60
2019-04-21T23:00:37.746Z,65.70
2019-04-21T23:03:04.046Z,65.80
2019-04-21T23:05:33.467Z,65.60
2019-04-21T23:08:01.476Z,65.80
2019-04-21T23:10:25.319Z,65.10
2019-04-21T23:12:52.160Z,64.70
2019-04-21T23:15:21.302Z,64.60
2019-04-21T23:18:04.968Z,64.30
2019-04-21T23:20:31.578Z,64.90
2019-04-21T23:23:05.020Z,64.20
2019-04-21T23:25:31.538Z,64.00
2019-04-21T23:27:56.238Z,64.00
2019-04-21T23:30:32.334Z,63.80
2019-04-21T23:32:47.903Z,63.60
2019-04-21T23:35:13.329Z,63.60
2019-04-21T23:37:46.017Z,63.90
2019-04-21T23:40:09.377Z,64.20
2019-04-21T23:42:37.125Z,63.80
2019-04-21T23:45:03.177Z,64.00
2019-04-21T23:47:42.804Z,63.90
2019-04-21T23:50:05.421Z,63.80
2019-04-21T23:52:27.705Z,63.80
2019-04-21T23:54:53.970Z,63.80
2019-04-21T23:57:29.831Z,63.70
2019-04-21T23:59:53.465Z,63.60
